sensor_id;sensor_type;location;lat;lon;timestamp;temperature;humidity
48007;DHT22;33771;48.180;11.400;2022-09-09T00:04:36;14.30;99.90
48007;DHT22;33771;48.180;11.400;2022-09-09T00:15:07;14.30;99.90
48007;DHT22;33771;48.180;11.400;2022-09-09T00:17:43;14.30;99.90
48007;DHT22;33771;48.180;11.400;2022-09-09T00:22:50;14.30;99.90
48007;DHT22;33771;48.180;11.400;2022-09-09T00:28:16;14.30;99.90
48007;DHT22;33771;48.180;11.400;2022-09-09T00:30:43;14.30;99.90
48007;DHT22;33771;48.180;11.400;2022-09-09T00:33:11;14.30;99.90
48007;DHT22;33771;48.180;11.400;2022-09-09T00:35:45;14.30;99.90
48007;DHT22;33771;48.180;11.400;2022-09-09T00:38:24;14.20;99.90
48007;DHT22;33771;48.180;11.400;2022-09-09T00:43:40;14.10;99.90
48007;DHT22;33771;48.180;11.400;2022-09-09T00:49:15;14.10;99.90
48007;DHT22;33771;48.180;11.400;2022-09-09T01:02:27;13.90;99.90
48007;DHT22;33771;48.180;11.400;2022-09-09T01:04:54;13.90;99.90
48007;DHT22;33771;48.180;11.400;2022-09-09T01:07:20;13.90;99.90
48007;DHT22;33771;48.180;11.400;2022-09-09T01:09:59;13.90;99.90
48007;DHT22;33771;48.180;11.400;2022-09-09T01:12:38;13.90;99.90
48007;DHT22;33771;48.180;11.400;2022-09-09T01:15:27;13.80;99.90
48007;DHT22;33771;48.180;11.400;2022-09-09T01:18:07;13.80;99.90
48007;DHT22;33771;48.180;11.400;2022-09-09T01:26:37;13.80;99.90
48007;DHT22;33771;48.180;11.400;2022-09-09T01:29:07;13.80;99.90
48007;DHT22;33771;48.180;11.400;2022-09-09T01:31:50;13.80;99.90
48007;DHT22;33771;48.180;11.400;2022-09-09T01:34:17;13.80;99.90
48007;DHT22;33771;48.180;11.400;2022-09-09T01:39:24;13.70;99.90
48007;DHT22;33771;48.180;11.400;2022-09-09T01:41:50;13.70;99.90
48007;DHT22;33771;48.180;11.400;2022-09-09T01:44:16;13.70;99.90
48007;DHT22;33771;48.180;11.400;2022-09-09T01:46:43;13.70;99.90
48007;DHT22;33771;48.180;11.400;2022-09-09T01:49:09;13.70;99.90
48007;DHT22;33771;48.180;11.400;2022-09-09T01:51:36;13.70;99.90
48007;DHT22;33771;48.180;11.400;2022-09-09T01:54:04;13.60;99.90
48007;DHT22;33771;48.180;11.400;2022-09-09T02:04:39;13.60;99.90
48007;DHT22;33771;48.180;11.400;2022-09-09T02:12:45;13.60;99.90
48007;DHT22;33771;48.180;11.400;2022-09-09T02:17:52;13.60;99.90
48007;DHT22;33771;48.180;11.400;2022-09-09T02:20:19;13.50;99.90
48007;DHT22;33771;48.180;11.400;2022-09-09T02:22:49;13.50;99.90
48007;DHT22;33771;48.180;11.400;2022-09-09T02:25:19;13.50;99.90
48007;DHT22;33771;48.180;11.400;2022-09-09T02:27:46;13.50;99.90
48007;DHT22;33771;48.180;11.400;2022-09-09T02:30:13;13.50;99.90
48007;DHT22;33771;48.180;11.400;2022-09-09T02:32:40;13.50;99.90
48007;DHT22;33771;48.180;11.400;2022-09-09T02:35:11;13.50;99.90
48007;DHT22;33771;48.180;11.400;2022-09-09T02:37:42;13.50;99.90
48007;DHT22;33771;48.180;11.400;2022-09-09T02:40:10;13.50;99.90
48007;DHT22;33771;48.180;11.400;2022-09-09T02:42:45;13.50;99.90
48007;DHT22;33771;48.180;11.400;2022-09-09T02:45:12;13.40;99.90
48007;DHT22;33771;48.180;11.400;2022-09-09T02:47:50;13.40;99.90
48007;DHT22;33771;48.180;11.400;2022-09-09T02:50:30;13.30;99.90
48007;DHT22;33771;48.180;11.400;2022-09-09T02:53:16;13.40;99.90
48007;DHT22;33771;48.180;11.400;2022-09-09T02:55:48;13.30;99.90
48007;DHT22;33771;48.180;11.400;2022-09-09T02:58:18;13.30;99.90
48007;DHT22;33771;48.180;11.400;2022-09-09T03:00:46;13.20;99.90
48007;DHT22;33771;48.180;11.400;2022-09-09T03:03:12;13.30;99.90
48007;DHT22;33771;48.180;11.400;2022-09-09T03:05:38;13.20;99.90
48007;DHT22;33771;48.180;11.400;2022-09-09T03:08:04;13.30;99.90
48007;DHT22;33771;48.180;11.400;2022-09-09T03:10:31;13.30;99.90
48007;DHT22;33771;48.180;11.400;2022-09-09T03:12:57;13.30;99.90
48007;DHT22;33771;48.180;11.400;2022-09-09T03:15:23;13.20;99.90
48007;DHT22;33771;48.180;11.400;2022-09-09T03:17:48;13.30;99.90
48007;DHT22;33771;48.180;11.400;2022-09-09T03:20:14;13.30;99.90
48007;DHT22;33771;48.180;11.400;2022-09-09T03:22:40;13.20;99.90
48007;DHT22;33771;48.180;11.400;2022-09-09T03:25:06;13.20;99.90
48007;DHT22;33771;48.180;11.400;2022-09-09T03:27:32;13.20;99.90
48007;DHT22;33771;48.180;11.400;2022-09-09T03:29:58;13.20;99.90
48007;DHT22;33771;48.180;11.400;2022-09-09T03:32:23;13.20;99.90
48007;DHT22;33771;48.180;11.400;2022-09-09T03:34:51;13.20;99.90
48007;DHT22;33771;48.180;11.400;2022-09-09T03:37:18;13.20;99.90
48007;DHT22;33771;48.180;11.400;2022-09-09T03:39:44;13.20;99.90
48007;DHT22;33771;48.180;11.400;2022-09-09T03:42:12;13.20;99.90
48007;DHT22;33771;48.180;11.400;2022-09-09T03:44:39;13.20;99.90
48007;DHT22;33771;48.180;11.400;2022-09-09T03:47:05;13.30;99.90
48007;DHT22;33771;48.180;11.400;2022-09-09T03:49:31;13.30;99.90
48007;DHT22;33771;48.180;11.400;2022-09-09T03:51:57;13.30;99.90
48007;DHT22;33771;48.180;11.400;2022-09-09T03:54:24;13.40;99.90
48007;DHT22;33771;48.180;11.400;2022-09-09T03:56:50;13.40;99.90
48007;DHT22;33771;48.180;11.400;2022-09-09T03:59:15;13.50;99.90
48007;DHT22;33771;48.180;11.400;2022-09-09T04:01:41;13.50;99.90
48007;DHT22;33771;48.180;11.400;2022-09-09T04:04:07;13.60;99.90
48007;DHT22;33771;48.180;11.400;2022-09-09T04:06:32;13.70;99.90
48007;DHT22;33771;48.180;11.400;2022-09-09T04:08:58;13.70;99.90
48007;DHT22;33771;48.180;11.400;2022-09-09T04:11:23;13.70;99.90
48007;DHT22;33771;48.180;11.400;2022-09-09T04:13:49;13.80;99.90
48007;DHT22;33771;48.180;11.400;2022-09-09T04:16:15;13.80;99.90
48007;DHT22;33771;48.180;11.400;2022-09-09T04:18:41;13.90;99.90
48007;DHT22;33771;48.180;11.400;2022-09-09T04:21:08;13.90;99.90
48007;DHT22;33771;48.180;11.400;2022-09-09T04:23:35;13.90;99.90
48007;DHT22;33771;48.180;11.400;2022-09-09T04:26:02;13.90;99.90
48007;DHT22;33771;48.180;11.400;2022-09-09T04:28:29;13.90;99.90
48007;DHT22;33771;48.180;11.400;2022-09-09T04:30:56;13.90;99.90
48007;DHT22;33771;48.180;11.400;2022-09-09T04:33:25;13.90;99.90
48007;DHT22;33771;48.180;11.400;2022-09-09T04:35:53;13.90;99.90
48007;DHT22;33771;48.180;11.400;2022-09-09T04:38:19;13.90;99.90
48007;DHT22;33771;48.180;11.400;2022-09-09T04:40:48;13.90;99.90
48007;DHT22;33771;48.180;11.400;2022-09-09T04:43:14;13.80;99.90
48007;DHT22;33771;48.180;11.400;2022-09-09T04:45:46;13.80;99.90
48007;DHT22;33771;48.180;11.400;2022-09-09T04:48:12;13.80;99.90
48007;DHT22;33771;48.180;11.400;2022-09-09T04:50:37;13.80;99.90
48007;DHT22;33771;48.180;11.400;2022-09-09T04:53:04;13.80;99.90
48007;DHT22;33771;48.180;11.400;2022-09-09T04:55:30;13.80;99.90
48007;DHT22;33771;48.180;11.400;2022-09-09T04:57:56;13.80;99.90
48007;DHT22;33771;48.180;11.400;2022-09-09T05:00:23;13.80;99.90
48007;DHT22;33771;48.180;11.400;2022-09-09T05:02:49;13.80;99.90
48007;DHT22;33771;48.180;11.400;2022-09-09T05:05:14;13.80;99.90
48007;DHT22;33771;48.180;11.400;2022-09-09T05:07:40;13.80;99.90
48007;DHT22;33771;48.180;11.400;2022-09-09T05:10:07;13.80;99.90
48007;DHT22;33771;48.180;11.400;2022-09-09T05:12:32;13.80;99.90
48007;DHT22;33771;48.180;11.400;2022-09-09T05:14:58;13.80;99.90
48007;DHT22;33771;48.180;11.400;2022-09-09T05:17:24;13.80;99.90
48007;DHT22;33771;48.180;11.400;2022-09-09T05:19:49;13.80;99.90
48007;DHT22;33771;48.180;11.400;2022-09-09T05:22:19;13.80;99.90
48007;DHT22;33771;48.180;11.400;2022-09-09T05:24:45;13.80;99.90
48007;DHT22;33771;48.180;11.400;2022-09-09T05:27:11;13.80;99.90
48007;DHT22;33771;48.180;11.400;2022-09-09T05:29:37;13.80;99.90
48007;DHT22;33771;48.180;11.400;2022-09-09T05:32:04;13.80;99.90
48007;DHT22;33771;48.180;11.400;2022-09-09T05:34:29;13.80;99.90
48007;DHT22;33771;48.180;11.400;2022-09-09T05:36:55;13.90;99.90
48007;DHT22;33771;48.180;11.400;2022-09-09T05:39:20;13.90;99.90
48007;DHT22;33771;48.180;11.400;2022-09-09T05:41:46;14.00;99.90
48007;DHT22;33771;48.180;11.400;2022-09-09T05:44:12;14.00;99.90
48007;DHT22;33771;48.180;11.400;2022-09-09T05:46:37;14.10;99.90
48007;DHT22;33771;48.180;11.400;2022-09-09T05:49:03;14.20;99.90
48007;DHT22;33771;48.180;11.400;2022-09-09T05:51:30;14.20;99.90
48007;DHT22;33771;48.180;11.400;2022-09-09T05:53:56;14.30;99.90
48007;DHT22;33771;48.180;11.400;2022-09-09T05:56:26;14.30;99.90
48007;DHT22;33771;48.180;11.400;2022-09-09T05:58:53;14.40;99.90
48007;DHT22;33771;48.180;11.400;2022-09-09T06:01:24;14.40;99.90
48007;DHT22;33771;48.180;11.400;2022-09-09T06:03:51;14.40;99.90
48007;DHT22;33771;48.180;11.400;2022-09-09T06:06:20;14.50;99.90
48007;DHT22;33771;48.180;11.400;2022-09-09T06:08:51;14.50;99.90
48007;DHT22;33771;48.180;11.400;2022-09-09T06:11:23;14.50;99.90
48007;DHT22;33771;48.180;11.400;2022-09-09T06:13:49;14.60;99.90
48007;DHT22;33771;48.180;11.400;2022-09-09T06:16:21;14.60;99.90
48007;DHT22;33771;48.180;11.400;2022-09-09T06:18:49;14.60;99.90
48007;DHT22;33771;48.180;11.400;2022-09-09T06:21:21;14.70;99.90
48007;DHT22;33771;48.180;11.400;2022-09-09T06:23:47;14.70;99.90
48007;DHT22;33771;48.180;11.400;2022-09-09T06:26:21;14.80;99.90
48007;DHT22;33771;48.180;11.400;2022-09-09T06:28:49;14.90;99.90
48007;DHT22;33771;48.180;11.400;2022-09-09T06:31:17;14.90;99.90
48007;DHT22;33771;48.180;11.400;2022-09-09T06:33:43;15.00;99.90
48007;DHT22;33771;48.180;11.400;2022-09-09T06:36:39;15.10;99.90
48007;DHT22;33771;48.180;11.400;2022-09-09T06:39:05;15.20;99.90
48007;DHT22;33771;48.180;11.400;2022-09-09T06:41:32;15.20;99.90
48007;DHT22;33771;48.180;11.400;2022-09-09T06:43:58;15.30;99.90
48007;DHT22;33771;48.180;11.400;2022-09-09T06:46:26;15.30;99.90
48007;DHT22;33771;48.180;11.400;2022-09-09T06:48:56;15.40;99.90
48007;DHT22;33771;48.180;11.400;2022-09-09T06:51:23;15.40;99.90
48007;DHT22;33771;48.180;11.400;2022-09-09T06:53:55;15.40;99.90
48007;DHT22;33771;48.180;11.400;2022-09-09T06:56:29;15.50;99.90
48007;DHT22;33771;48.180;11.400;2022-09-09T06:58:57;15.50;99.90
48007;DHT22;33771;48.180;11.400;2022-09-09T07:01:27;15.50;99.90
48007;DHT22;33771;48.180;11.400;2022-09-09T07:03:56;15.40;99.90
48007;DHT22;33771;48.180;11.400;2022-09-09T07:06:29;15.40;99.90
48007;DHT22;33771;48.180;11.400;2022-09-09T07:09:06;15.40;99.90
48007;DHT22;33771;48.180;11.400;2022-09-09T07:11:38;15.40;99.90
48007;DHT22;33771;48.180;11.400;2022-09-09T07:14:04;15.40;99.90
48007;DHT22;33771;48.180;11.400;2022-09-09T07:16:30;15.50;99.90
48007;DHT22;33771;48.180;11.400;2022-09-09T07:18:58;15.60;99.90
48007;DHT22;33771;48.180;11.400;2022-09-09T07:21:26;15.70;99.90
48007;DHT22;33771;48.180;11.400;2022-09-09T07:23:53;16.00;99.90
48007;DHT22;33771;48.180;11.400;2022-09-09T07:26:22;16.10;99.90
48007;DHT22;33771;48.180;11.400;2022-09-09T07:28:48;16.30;99.90
48007;DHT22;33771;48.180;11.400;2022-09-09T07:31:19;16.50;99.90
48007;DHT22;33771;48.180;11.400;2022-09-09T07:33:46;16.70;99.90
48007;DHT22;33771;48.180;11.400;2022-09-09T07:36:15;16.80;99.90
48007;DHT22;33771;48.180;11.400;2022-09-09T07:38:46;17.00;99.90
48007;DHT22;33771;48.180;11.400;2022-09-09T07:41:18;17.20;99.90
48007;DHT22;33771;48.180;11.400;2022-09-09T07:43:45;17.20;99.90
48007;DHT22;33771;48.180;11.400;2022-09-09T07:46:14;17.40;99.90
48007;DHT22;33771;48.180;11.400;2022-09-09T07:48:50;17.50;99.90
48007;DHT22;33771;48.180;11.400;2022-09-09T07:51:22;17.60;99.90
48007;DHT22;33771;48.180;11.400;2022-09-09T07:53:52;17.70;99.90
48007;DHT22;33771;48.180;11.400;2022-09-09T07:56:19;17.80;99.90
48007;DHT22;33771;48.180;11.400;2022-09-09T07:58:50;17.80;99.90
48007;DHT22;33771;48.180;11.400;2022-09-09T08:01:19;17.80;99.90
48007;DHT22;33771;48.180;11.400;2022-09-09T08:03:46;17.70;99.90
48007;DHT22;33771;48.180;11.400;2022-09-09T08:06:13;17.70;99.90
48007;DHT22;33771;48.180;11.400;2022-09-09T08:08:39;17.70;99.90
48007;DHT22;33771;48.180;11.400;2022-09-09T08:11:12;17.60;99.90
48007;DHT22;33771;48.180;11.400;2022-09-09T08:13:39;17.60;99.90
48007;DHT22;33771;48.180;11.400;2022-09-09T08:16:07;17.50;99.90
48007;DHT22;33771;48.180;11.400;2022-09-09T08:18:33;17.40;99.90
48007;DHT22;33771;48.180;11.400;2022-09-09T08:21:05;17.40;99.90
48007;DHT22;33771;48.180;11.400;2022-09-09T08:23:31;17.30;99.90
48007;DHT22;33771;48.180;11.400;2022-09-09T08:26:07;17.30;99.90
48007;DHT22;33771;48.180;11.400;2022-09-09T08:28:34;17.20;99.90
48007;DHT22;33771;48.180;11.400;2022-09-09T08:33:32;17.10;99.90
48007;DHT22;33771;48.180;11.400;2022-09-09T08:35:59;17.10;99.90
48007;DHT22;33771;48.180;11.400;2022-09-09T08:38:24;17.10;99.90
48007;DHT22;33771;48.180;11.400;2022-09-09T08:40:52;17.10;99.90
48007;DHT22;33771;48.180;11.400;2022-09-09T08:43:24;17.10;99.90
48007;DHT22;33771;48.180;11.400;2022-09-09T08:48:44;17.20;99.90
48007;DHT22;33771;48.180;11.400;2022-09-09T08:51:13;17.40;99.90
48007;DHT22;33771;48.180;11.400;2022-09-09T08:53:48;17.50;99.90
48007;DHT22;33771;48.180;11.400;2022-09-09T08:56:19;17.60;99.90
48007;DHT22;33771;48.180;11.400;2022-09-09T08:58:49;17.80;99.90
48007;DHT22;33771;48.180;11.400;2022-09-09T09:01:36;17.80;99.90
48007;DHT22;33771;48.180;11.400;2022-09-09T09:10:43;18.30;99.90
48007;DHT22;33771;48.180;11.400;2022-09-09T09:13:17;18.50;99.90
48007;DHT22;33771;48.180;11.400;2022-09-09T09:15:44;18.60;99.90
48007;DHT22;33771;48.180;11.400;2022-09-09T09:18:13;18.60;99.90
48007;DHT22;33771;48.180;11.400;2022-09-09T09:23:47;18.70;99.90
48007;DHT22;33771;48.180;11.400;2022-09-09T09:26:16;18.60;99.90
48007;DHT22;33771;48.180;11.400;2022-09-09T09:28:44;18.60;99.90
48007;DHT22;33771;48.180;11.400;2022-09-09T09:31:11;18.60;99.90
48007;DHT22;33771;48.180;11.400;2022-09-09T09:33:55;18.60;99.90
48007;DHT22;33771;48.180;11.400;2022-09-09T09:36:24;18.60;99.90
48007;DHT22;33771;48.180;11.400;2022-09-09T09:38:58;18.40;99.90
48007;DHT22;33771;48.180;11.400;2022-09-09T09:41:42;18.30;99.90
48007;DHT22;33771;48.180;11.400;2022-09-09T09:44:30;18.30;99.90
48007;DHT22;33771;48.180;11.400;2022-09-09T09:47:25;18.20;99.90
48007;DHT22;33771;48.180;11.400;2022-09-09T09:49:56;18.20;99.90
48007;DHT22;33771;48.180;11.400;2022-09-09T09:52:29;18.20;99.90
48007;DHT22;33771;48.180;11.400;2022-09-09T09:54:56;18.10;99.90
48007;DHT22;33771;48.180;11.400;2022-09-09T09:57:40;18.10;99.90
48007;DHT22;33771;48.180;11.400;2022-09-09T10:00:19;18.00;99.90
48007;DHT22;33771;48.180;11.400;2022-09-09T10:02:46;18.00;99.90
48007;DHT22;33771;48.180;11.400;2022-09-09T10:05:13;18.00;99.90
48007;DHT22;33771;48.180;11.400;2022-09-09T10:07:39;18.00;99.90
48007;DHT22;33771;48.180;11.400;2022-09-09T10:10:08;18.00;99.90
48007;DHT22;33771;48.180;11.400;2022-09-09T10:13:05;18.00;99.90
48007;DHT22;33771;48.180;11.400;2022-09-09T10:18:39;18.20;99.90
48007;DHT22;33771;48.180;11.400;2022-09-09T10:27:15;18.40;99.90
48007;DHT22;33771;48.180;11.400;2022-09-09T10:35:53;18.60;99.90
48007;DHT22;33771;48.180;11.400;2022-09-09T10:38:34;18.60;99.90
48007;DHT22;33771;48.180;11.400;2022-09-09T10:44:48;18.80;99.90
48007;DHT22;33771;48.180;11.400;2022-09-09T10:47:45;18.90;99.90
48007;DHT22;33771;48.180;11.400;2022-09-09T10:50:20;18.90;99.90
48007;DHT22;33771;48.180;11.400;2022-09-09T10:55:28;19.10;99.90
48007;DHT22;33771;48.180;11.400;2022-09-09T10:57:58;19.20;99.90
48007;DHT22;33771;48.180;11.400;2022-09-09T11:00:36;19.30;99.90
48007;DHT22;33771;48.180;11.400;2022-09-09T11:03:04;19.40;99.90
48007;DHT22;33771;48.180;11.400;2022-09-09T11:05:46;19.40;99.90
48007;DHT22;33771;48.180;11.400;2022-09-09T11:08:26;19.40;99.90
48007;DHT22;33771;48.180;11.400;2022-09-09T11:11:02;19.40;99.90
48007;DHT22;33771;48.180;11.400;2022-09-09T11:19:00;19.80;99.90
48007;DHT22;33771;48.180;11.400;2022-09-09T11:22:04;19.90;99.90
48007;DHT22;33771;48.180;11.400;2022-09-09T11:26:57;20.60;99.90
48007;DHT22;33771;48.180;11.400;2022-09-09T11:32:39;21.00;99.90
48007;DHT22;33771;48.180;11.400;2022-09-09T11:35:43;21.10;99.90
48007;DHT22;33771;48.180;11.400;2022-09-09T11:38:32;21.10;99.90
48007;DHT22;33771;48.180;11.400;2022-09-09T11:41:06;21.20;99.90
48007;DHT22;33771;48.180;11.400;2022-09-09T11:46:08;21.90;99.90
48007;DHT22;33771;48.180;11.400;2022-09-09T11:48:45;22.00;99.90
48007;DHT22;33771;48.180;11.400;2022-09-09T11:51:32;21.70;99.90
48007;DHT22;33771;48.180;11.400;2022-09-09T11:54:00;21.60;99.90
48007;DHT22;33771;48.180;11.400;2022-09-09T11:56:48;21.60;99.90
48007;DHT22;33771;48.180;11.400;2022-09-09T11:59:23;21.50;99.90
48007;DHT22;33771;48.180;11.400;2022-09-09T12:02:17;21.50;99.90
48007;DHT22;33771;48.180;11.400;2022-09-09T12:05:07;21.20;99.90
48007;DHT22;33771;48.180;11.400;2022-09-09T12:07:39;20.90;99.90
48007;DHT22;33771;48.180;11.400;2022-09-09T12:10:29;20.70;99.90
48007;DHT22;33771;48.180;11.400;2022-09-09T12:12:55;20.70;99.90
48007;DHT22;33771;48.180;11.400;2022-09-09T12:15:32;20.70;99.90
48007;DHT22;33771;48.180;11.400;2022-09-09T12:17:58;20.80;99.90
48007;DHT22;33771;48.180;11.400;2022-09-09T12:20:36;21.00;99.90
48007;DHT22;33771;48.180;11.400;2022-09-09T12:23:30;21.10;99.90
48007;DHT22;33771;48.180;11.400;2022-09-09T12:26:23;21.20;99.90
48007;DHT22;33771;48.180;11.400;2022-09-09T12:37:46;21.70;99.90
48007;DHT22;33771;48.180;11.400;2022-09-09T12:39:55;21.80;99.90
48007;DHT22;33771;48.180;11.400;2022-09-09T12:42:22;21.60;99.90
48007;DHT22;33771;48.180;11.400;2022-09-09T12:44:56;21.70;99.90
48007;DHT22;33771;48.180;11.400;2022-09-09T12:47:29;21.40;99.90
48007;DHT22;33771;48.180;11.400;2022-09-09T12:49:57;21.30;99.90
48007;DHT22;33771;48.180;11.400;2022-09-09T12:52:30;21.20;99.90
48007;DHT22;33771;48.180;11.400;2022-09-09T12:54:58;21.10;99.90
48007;DHT22;33771;48.180;11.400;2022-09-09T12:57:25;21.00;99.90
48007;DHT22;33771;48.180;11.400;2022-09-09T12:59:51;20.90;99.90
48007;DHT22;33771;48.180;11.400;2022-09-09T13:04:46;20.90;99.90
48007;DHT22;33771;48.180;11.400;2022-09-09T13:07:12;21.00;99.90
48007;DHT22;33771;48.180;11.400;2022-09-09T13:09:39;21.00;99.90
48007;DHT22;33771;48.180;11.400;2022-09-09T13:12:06;21.10;99.90
48007;DHT22;33771;48.180;11.400;2022-09-09T13:14:38;21.00;99.90
48007;DHT22;33771;48.180;11.400;2022-09-09T13:17:05;21.00;99.90
48007;DHT22;33771;48.180;11.400;2022-09-09T13:19:36;20.90;99.90
48007;DHT22;33771;48.180;11.400;2022-09-09T13:22:14;21.00;99.90
48007;DHT22;33771;48.180;11.400;2022-09-09T13:24:44;21.10;99.90
48007;DHT22;33771;48.180;11.400;2022-09-09T13:27:29;21.20;99.90
48007;DHT22;33771;48.180;11.400;2022-09-09T13:29:55;21.20;99.90
48007;DHT22;33771;48.180;11.400;2022-09-09T13:32:23;21.30;99.90
48007;DHT22;33771;48.180;11.400;2022-09-09T13:34:57;21.40;99.90
48007;DHT22;33771;48.180;11.400;2022-09-09T13:37:38;21.60;99.90
48007;DHT22;33771;48.180;11.400;2022-09-09T13:40:14;21.80;99.90
48007;DHT22;33771;48.180;11.400;2022-09-09T13:42:42;21.90;99.90
48007;DHT22;33771;48.180;11.400;2022-09-09T13:45:19;21.80;99.90
48007;DHT22;33771;48.180;11.400;2022-09-09T13:47:49;21.90;99.90
48007;DHT22;33771;48.180;11.400;2022-09-09T13:50:26;21.90;99.90
48007;DHT22;33771;48.180;11.400;2022-09-09T13:52:57;21.90;99.90
48007;DHT22;33771;48.180;11.400;2022-09-09T13:55:27;21.60;99.90
48007;DHT22;33771;48.180;11.400;2022-09-09T13:57:58;21.50;99.90
48007;DHT22;33771;48.180;11.400;2022-09-09T14:00:26;21.20;99.90
48007;DHT22;33771;48.180;11.400;2022-09-09T14:02:52;21.00;99.90
48007;DHT22;33771;48.180;11.400;2022-09-09T14:05:20;20.80;99.90
48007;DHT22;33771;48.180;11.400;2022-09-09T14:07:46;20.70;99.90
48007;DHT22;33771;48.180;11.400;2022-09-09T14:10:12;20.60;99.90
48007;DHT22;33771;48.180;11.400;2022-09-09T14:12:37;20.60;99.90
48007;DHT22;33771;48.180;11.400;2022-09-09T14:15:04;20.50;99.90
48007;DHT22;33771;48.180;11.400;2022-09-09T14:17:30;20.30;99.90
48007;DHT22;33771;48.180;11.400;2022-09-09T14:19:57;20.10;99.90
48007;DHT22;33771;48.180;11.400;2022-09-09T14:22:23;20.10;99.90
48007;DHT22;33771;48.180;11.400;2022-09-09T14:24:49;20.00;99.90
48007;DHT22;33771;48.180;11.400;2022-09-09T14:27:15;20.00;99.90
48007;DHT22;33771;48.180;11.400;2022-09-09T14:29:41;19.90;99.90
48007;DHT22;33771;48.180;11.400;2022-09-09T14:32:06;19.90;99.90
48007;DHT22;33771;48.180;11.400;2022-09-09T14:34:32;19.90;99.90
48007;DHT22;33771;48.180;11.400;2022-09-09T14:36:58;19.90;99.90
48007;DHT22;33771;48.180;11.400;2022-09-09T14:39:24;19.90;99.90
48007;DHT22;33771;48.180;11.400;2022-09-09T14:41:49;19.90;99.90
48007;DHT22;33771;48.180;11.400;2022-09-09T14:44:15;19.80;99.90
48007;DHT22;33771;48.180;11.400;2022-09-09T14:46:41;19.70;99.90
48007;DHT22;33771;48.180;11.400;2022-09-09T14:49:07;19.70;99.90
48007;DHT22;33771;48.180;11.400;2022-09-09T14:51:33;19.60;99.90
48007;DHT22;33771;48.180;11.400;2022-09-09T14:53:59;19.50;99.90
48007;DHT22;33771;48.180;11.400;2022-09-09T14:56:27;19.40;99.90
48007;DHT22;33771;48.180;11.400;2022-09-09T14:58:56;19.40;99.90
48007;DHT22;33771;48.180;11.400;2022-09-09T15:01:22;19.30;99.90
48007;DHT22;33771;48.180;11.400;2022-09-09T15:03:51;19.30;99.90
48007;DHT22;33771;48.180;11.400;2022-09-09T15:06:17;19.30;99.90
48007;DHT22;33771;48.180;11.400;2022-09-09T15:08:43;19.40;99.90
48007;DHT22;33771;48.180;11.400;2022-09-09T15:11:11;19.50;99.90
48007;DHT22;33771;48.180;11.400;2022-09-09T15:13:38;19.80;99.90
48007;DHT22;33771;48.180;11.400;2022-09-09T15:18:31;20.20;99.90
48007;DHT22;33771;48.180;11.400;2022-09-09T15:20:58;20.30;99.90
48007;DHT22;33771;48.180;11.400;2022-09-09T15:23:25;20.30;99.90
48007;DHT22;33771;48.180;11.400;2022-09-09T15:25:54;20.30;99.90
48007;DHT22;33771;48.180;11.400;2022-09-09T15:28:21;20.20;99.90
48007;DHT22;33771;48.180;11.400;2022-09-09T15:30:48;20.10;99.90
48007;DHT22;33771;48.180;11.400;2022-09-09T15:33:14;20.00;99.90
48007;DHT22;33771;48.180;11.400;2022-09-09T15:35:39;20.00;99.90
48007;DHT22;33771;48.180;11.400;2022-09-09T15:38:05;19.90;99.90
48007;DHT22;33771;48.180;11.400;2022-09-09T15:40:31;19.80;99.90
48007;DHT22;33771;48.180;11.400;2022-09-09T15:43:00;19.80;99.90
48007;DHT22;33771;48.180;11.400;2022-09-09T15:45:25;19.70;99.90
48007;DHT22;33771;48.180;11.400;2022-09-09T15:47:52;19.60;99.90
48007;DHT22;33771;48.180;11.400;2022-09-09T15:50:18;19.60;99.90
48007;DHT22;33771;48.180;11.400;2022-09-09T15:52:43;19.50;99.90
48007;DHT22;33771;48.180;11.400;2022-09-09T15:55:09;19.30;99.90
48007;DHT22;33771;48.180;11.400;2022-09-09T15:57:35;19.20;99.90
48007;DHT22;33771;48.180;11.400;2022-09-09T16:00:05;19.00;99.90
48007;DHT22;33771;48.180;11.400;2022-09-09T16:02:31;18.90;99.90
48007;DHT22;33771;48.180;11.400;2022-09-09T16:04:57;18.90;99.90
48007;DHT22;33771;48.180;11.400;2022-09-09T16:07:22;18.80;99.90
48007;DHT22;33771;48.180;11.400;2022-09-09T16:09:48;18.70;99.90
48007;DHT22;33771;48.180;11.400;2022-09-09T16:12:17;18.80;99.90
48007;DHT22;33771;48.180;11.400;2022-09-09T16:14:42;18.80;99.90
48007;DHT22;33771;48.180;11.400;2022-09-09T16:17:08;18.90;99.90
48007;DHT22;33771;48.180;11.400;2022-09-09T16:19:34;19.10;99.90
48007;DHT22;33771;48.180;11.400;2022-09-09T16:22:00;19.20;99.90
48007;DHT22;33771;48.180;11.400;2022-09-09T16:24:25;19.20;99.90
48007;DHT22;33771;48.180;11.400;2022-09-09T16:26:53;19.20;99.90
48007;DHT22;33771;48.180;11.400;2022-09-09T16:29:20;19.20;99.90
48007;DHT22;33771;48.180;11.400;2022-09-09T16:31:48;19.10;99.90
48007;DHT22;33771;48.180;11.400;2022-09-09T16:34:15;19.00;99.90
48007;DHT22;33771;48.180;11.400;2022-09-09T16:36:42;19.00;99.90
48007;DHT22;33771;48.180;11.400;2022-09-09T16:39:11;18.90;99.90
48007;DHT22;33771;48.180;11.400;2022-09-09T16:41:38;18.80;99.90
48007;DHT22;33771;48.180;11.400;2022-09-09T16:44:06;18.70;99.90
48007;DHT22;33771;48.180;11.400;2022-09-09T16:46:37;18.70;99.90
48007;DHT22;33771;48.180;11.400;2022-09-09T16:49:06;18.60;99.90
48007;DHT22;33771;48.180;11.400;2022-09-09T16:51:37;18.40;99.90
48007;DHT22;33771;48.180;11.400;2022-09-09T16:54:06;18.40;99.90
48007;DHT22;33771;48.180;11.400;2022-09-09T16:56:40;18.20;99.90
48007;DHT22;33771;48.180;11.400;2022-09-09T16:59:17;18.20;99.90
48007;DHT22;33771;48.180;11.400;2022-09-09T17:01:44;18.10;99.90
48007;DHT22;33771;48.180;11.400;2022-09-09T17:04:13;18.00;99.90
48007;DHT22;33771;48.180;11.400;2022-09-09T17:06:40;17.90;99.90
48007;DHT22;33771;48.180;11.400;2022-09-09T17:09:10;17.90;99.90
48007;DHT22;33771;48.180;11.400;2022-09-09T17:11:37;17.80;99.90
48007;DHT22;33771;48.180;11.400;2022-09-09T17:14:04;17.70;99.90
48007;DHT22;33771;48.180;11.400;2022-09-09T17:16:32;17.60;99.90
48007;DHT22;33771;48.180;11.400;2022-09-09T17:19:02;17.50;99.90
48007;DHT22;33771;48.180;11.400;2022-09-09T17:21:29;17.40;99.90
48007;DHT22;33771;48.180;11.400;2022-09-09T17:23:56;17.30;99.90
48007;DHT22;33771;48.180;11.400;2022-09-09T17:26:24;17.20;99.90
48007;DHT22;33771;48.180;11.400;2022-09-09T17:28:52;17.10;99.90
48007;DHT22;33771;48.180;11.400;2022-09-09T17:31:19;17.10;99.90
48007;DHT22;33771;48.180;11.400;2022-09-09T17:33:47;17.00;99.90